createdAt,value
2022-12-31T00:02:05.195Z,79.87
2022-12-31T00:04:31.793Z,79.86
2022-12-31T00:06:58.387Z,79.48
2022-12-31T00:09:24.859Z,78.65
2022-12-31T00:11:51.348Z,79.20
2022-12-31T00:14:17.913Z,78.65
2022-12-31T00:16:44.523Z,78.33
2022-12-31T00:19:12.368Z,79.19
2022-12-31T00:21:39.574Z,79.30
2022-12-31T00:24:07.270Z,79.81
2022-12-31T00:26:35.067Z,79.14
2022-12-31T00:29:02.701Z,78.69
2022-12-31T00:31:31.784Z,78.88
2022-12-31T00:33:59.078Z,79.38
2022-12-31T00:36:30.549Z,79.60
2022-12-31T00:38:58.697Z,79.42
2022-12-31T00:41:26.305Z,79.95
2022-12-31T00:43:52.909Z,80.14
2022-12-31T00:46:19.920Z,79.84
2022-12-31T00:48:47.009Z,79.44
2022-12-31T00:51:16.371Z,80.35
2022-12-31T00:53:43.498Z,80.08
2022-12-31T00:56:15.747Z,79.70
2022-12-31T00:58:42.956Z,79.92
2022-12-31T01:01:10.607Z,80.03
2022-12-31T01:03:37.404Z,80.31
2022-12-31T01:06:04.535Z,80.23
2022-12-31T01:08:31.087Z,80.28
2022-12-31T01:11:16.459Z,80.01
2022-12-31T01:13:42.960Z,80.07
2022-12-31T01:16:11.619Z,79.61
2022-12-31T01:18:38.949Z,79.18
2022-12-31T01:21:07.752Z,79.23
2022-12-31T01:23:34.593Z,79.68
2022-12-31T01:26:03.397Z,80.20
2022-12-31T01:28:30.307Z,81.11
2022-12-31T01:30:57.240Z,81.39
2022-12-31T01:33:24.015Z,81.73
2022-12-31T01:35:50.757Z,82.29
2022-12-31T01:38:17.279Z,82.34
2022-12-31T01:40:44.241Z,83.07
2022-12-31T01:43:18.973Z,83.27
2022-12-31T01:45:52.540Z,82.83
2022-12-31T01:48:25.375Z,83.80
2022-12-31T01:50:53.601Z,84.21
2022-12-31T01:53:20.927Z,85.59
2022-12-31T01:55:56.641Z,90.03
2022-12-31T01:58:34.538Z,89.81
2022-12-31T02:01:01.161Z,89.36
2022-12-31T02:03:29.048Z,89.56
2022-12-31T02:06:20.150Z,89.08
2022-12-31T02:08:47.447Z,89.57
2022-12-31T02:11:34.429Z,89.91
2022-12-31T02:14:08.528Z,89.54
2022-12-31T02:17:02.019Z,89.21
2022-12-31T02:19:42.945Z,89.03
2022-12-31T02:22:41.507Z,89.29
2022-12-31T02:25:10.861Z,89.34
2022-12-31T02:28:19.813Z,89.46
2022-12-31T02:30:53.250Z,88.93
2022-12-31T02:33:31.264Z,89.23
2022-12-31T02:36:13.206Z,89.20
2022-12-31T02:38:44.321Z,90.63
2022-12-31T02:41:35.722Z,91.33
2022-12-31T02:44:19.644Z,92.92
2022-12-31T02:46:51.644Z,93.59
2022-12-31T02:49:26.269Z,93.29
2022-12-31T02:52:06.519Z,94.50
2022-12-31T02:54:42.495Z,95.46
2022-12-31T02:57:25.847Z,96.04
2022-12-31T03:00:23.961Z,96.04
2022-12-31T03:02:52.677Z,95.67
2022-12-31T03:05:29.465Z,95.82
2022-12-31T03:07:56.080Z,95.87
2022-12-31T03:10:22.616Z,95.71
2022-12-31T03:12:49.984Z,95.81
2022-12-31T03:15:22.569Z,97.25
2022-12-31T03:18:13.544Z,96.95
2022-12-31T03:21:24.244Z,96.15
2022-12-31T03:24:09.113Z,95.51
2022-12-31T03:26:35.837Z,95.13
2022-12-31T03:29:02.337Z,95.39
2022-12-31T03:31:28.892Z,96.21
2022-12-31T03:33:55.468Z,95.64
2022-12-31T03:36:21.963Z,97.29
2022-12-31T03:38:52.542Z,97.25
2022-12-31T03:41:19.351Z,95.64
2022-12-31T03:43:45.903Z,95.38
2022-12-31T03:46:12.398Z,94.39
2022-12-31T03:48:39.890Z,93.76
2022-12-31T03:51:06.333Z,93.62
2022-12-31T03:53:34.787Z,93.67
2022-12-31T03:56:01.249Z,94.00
2022-12-31T03:58:27.762Z,95.55
2022-12-31T04:00:54.325Z,96.79
2022-12-31T04:03:20.944Z,97.46
2022-12-31T04:05:55.489Z,96.77
2022-12-31T04:08:22.577Z,96.89
2022-12-31T04:10:49.053Z,98.91
2022-12-31T04:13:15.553Z,99.78
2022-12-31T04:15:42.070Z,99.30
2022-12-31T04:18:08.537Z,100.00
2022-12-31T04:20:35.038Z,100.00
2022-12-31T04:23:01.503Z,100.00
2022-12-31T04:25:27.980Z,100.00
2022-12-31T04:27:54.523Z,100.00
2022-12-31T04:30:21.043Z,100.00
2022-12-31T04:32:47.562Z,100.00
2022-12-31T04:35:14.022Z,100.00
2022-12-31T04:37:40.588Z,100.00
2022-12-31T04:40:08.360Z,100.00
2022-12-31T04:42:35.363Z,100.00
2022-12-31T04:45:01.863Z,100.00
2022-12-31T04:47:28.456Z,100.00
2022-12-31T04:49:54.955Z,100.00
2022-12-31T04:52:23.044Z,99.57
2022-12-31T04:54:50.012Z,98.64
2022-12-31T04:57:16.624Z,98.31
2022-12-31T04:59:43.134Z,97.98
2022-12-31T05:02:09.849Z,98.78
2022-12-31T05:04:36.408Z,98.64
2022-12-31T05:07:03.103Z,97.24
2022-12-31T05:09:29.758Z,97.97
2022-12-31T05:11:56.593Z,99.83
2022-12-31T05:14:23.308Z,100.00
2022-12-31T05:16:50.568Z,100.00
2022-12-31T05:19:17.098Z,100.00
2022-12-31T05:21:43.606Z,100.00
2022-12-31T05:24:10.099Z,100.00
2022-12-31T05:26:36.589Z,100.00
2022-12-31T05:29:03.051Z,100.00
2022-12-31T05:31:29.596Z,100.00
2022-12-31T05:33:56.275Z,100.00
2022-12-31T05:36:22.785Z,100.00
2022-12-31T05:38:49.234Z,100.00
2022-12-31T05:41:15.785Z,100.00
2022-12-31T05:43:42.224Z,100.00
2022-12-31T05:46:08.942Z,100.00
2022-12-31T05:48:35.522Z,100.00
2022-12-31T05:51:02.048Z,100.00
2022-12-31T05:53:28.641Z,100.00
2022-12-31T05:55:55.087Z,100.00
2022-12-31T05:58:21.536Z,100.00
2022-12-31T06:00:48.067Z,100.00
2022-12-31T06:03:14.684Z,100.00
2022-12-31T06:05:42.899Z,100.00
2022-12-31T06:08:11.104Z,100.00
2022-12-31T06:10:38.359Z,100.00
2022-12-31T06:13:05.005Z,100.00
2022-12-31T06:15:31.733Z,100.00
2022-12-31T06:17:58.334Z,100.00
2022-12-31T06:20:24.817Z,100.00
2022-12-31T06:22:51.305Z,100.00
2022-12-31T06:25:17.814Z,100.00
2022-12-31T06:27:44.282Z,100.00
2022-12-31T06:30:11.476Z,100.00
2022-12-31T06:32:39.373Z,100.00
2022-12-31T06:35:06.746Z,100.00
2022-12-31T06:37:33.257Z,100.00
2022-12-31T06:39:59.785Z,100.00
2022-12-31T06:42:30.780Z,100.00
2022-12-31T06:44:58.371Z,100.00
2022-12-31T06:47:25.782Z,100.00
2022-12-31T06:49:52.686Z,100.00
2022-12-31T06:52:19.437Z,100.00
2022-12-31T06:54:46.329Z,100.00
2022-12-31T06:57:13.248Z,100.00
2022-12-31T06:59:39.961Z,100.00
2022-12-31T07:02:44.125Z,100.00
2022-12-31T07:05:25.924Z,100.00
2022-12-31T07:08:20.172Z,100.00
2022-12-31T07:11:00.132Z,100.00
2022-12-31T07:13:48.056Z,100.00
2022-12-31T07:16:32.638Z,100.00
2022-12-31T07:19:10.992Z,100.00
2022-12-31T07:21:41.113Z,100.00
2022-12-31T07:24:09.804Z,100.00
2022-12-31T07:27:33.480Z,100.00
2022-12-31T07:30:00.002Z,100.00
2022-12-31T07:32:44.633Z,100.00
2022-12-31T07:35:34.760Z,100.00
2022-12-31T07:38:19.863Z,100.00
2022-12-31T07:41:07.338Z,100.00
2022-12-31T07:43:35.640Z,100.00
2022-12-31T07:46:39.593Z,100.00
2022-12-31T07:49:11.219Z,100.00
2022-12-31T07:51:38.484Z,100.00
2022-12-31T07:54:08.800Z,100.00
2022-12-31T07:56:40.289Z,100.00
2022-12-31T07:59:36.748Z,100.00
2022-12-31T08:02:32.326Z,100.00
2022-12-31T08:05:23.333Z,100.00
2022-12-31T08:08:11.110Z,100.00
2022-12-31T08:10:46.485Z,100.00
2022-12-31T08:13:13.309Z,100.00
2022-12-31T08:15:40.528Z,100.00
2022-12-31T08:18:07.801Z,100.00
2022-12-31T08:20:43.940Z,100.00
2022-12-31T08:24:04.605Z,100.00
2022-12-31T08:26:36.865Z,100.00
2022-12-31T08:29:30.026Z,100.00
2022-12-31T08:32:12.718Z,100.00
2022-12-31T08:34:56.070Z,100.00
2022-12-31T08:37:31.600Z,100.00
2022-12-31T08:40:13.046Z,100.00
2022-12-31T08:42:42.494Z,100.00
2022-12-31T08:45:20.058Z,100.00
2022-12-31T08:48:02.823Z,100.00
2022-12-31T08:50:30.229Z,99.54
2022-12-31T08:52:57.149Z,98.03
2022-12-31T08:55:23.984Z,95.63
2022-12-31T08:58:27.419Z,93.57
2022-12-31T09:00:57.992Z,91.70
2022-12-31T09:03:42.079Z,88.97
2022-12-31T09:06:33.774Z,87.98
2022-12-31T09:09:19.783Z,84.04
2022-12-31T09:11:57.398Z,83.45
2022-12-31T09:14:33.012Z,81.57
2022-12-31T09:17:02.511Z,80.71
2022-12-31T09:19:29.029Z,79.55
2022-12-31T09:21:56.283Z,78.46
2022-12-31T09:24:23.154Z,77.90
2022-12-31T09:27:28.345Z,75.03
2022-12-31T09:30:01.002Z,75.77
2022-12-31T09:32:32.762Z,75.11
2022-12-31T09:35:09.766Z,77.35
2022-12-31T09:37:49.394Z,78.41
2022-12-31T09:40:37.547Z,78.86
2022-12-31T09:43:22.758Z,80.10
2022-12-31T09:46:07.336Z,80.42
2022-12-31T09:49:08.068Z,79.21
2022-12-31T09:52:25.374Z,79.17
2022-12-31T09:55:24.113Z,78.30
2022-12-31T09:57:56.590Z,79.08
2022-12-31T10:00:35.548Z,79.19
2022-12-31T10:03:38.221Z,79.29
2022-12-31T10:06:24.526Z,79.44
2022-12-31T10:09:21.218Z,79.41
2022-12-31T10:12:04.030Z,78.83
2022-12-31T10:15:07.894Z,78.93
2022-12-31T10:17:40.519Z,78.19
2022-12-31T10:20:51.714Z,75.45
2022-12-31T10:23:27.533Z,74.81
2022-12-31T10:26:22.395Z,74.60
2022-12-31T10:28:51.585Z,74.35
2022-12-31T10:31:48.681Z,74.34
2022-12-31T10:34:33.563Z,74.23
2022-12-31T10:37:17.634Z,73.02
2022-12-31T10:39:54.265Z,73.21
2022-12-31T10:43:17.900Z,71.68
2022-12-31T10:46:35.533Z,71.36
2022-12-31T10:49:39.800Z,70.37
2022-12-31T10:52:21.293Z,69.88
2022-12-31T10:55:10.439Z,69.13
2022-12-31T10:57:52.071Z,68.75
2022-12-31T11:00:20.963Z,66.76
2022-12-31T11:03:28.865Z,65.66
2022-12-31T11:06:33.186Z,66.83
2022-12-31T11:09:08.631Z,66.16
2022-12-31T11:11:38.199Z,65.31
2022-12-31T11:14:23.307Z,66.86
2022-12-31T11:17:31.973Z,69.43
2022-12-31T11:20:24.561Z,70.12
2022-12-31T11:23:02.312Z,70.37
2022-12-31T11:25:37.876Z,71.50
2022-12-31T11:28:13.385Z,72.21
2022-12-31T11:30:58.137Z,72.91
2022-12-31T11:33:50.143Z,72.48
2022-12-31T11:36:43.355Z,72.60
2022-12-31T11:39:42.072Z,72.28
2022-12-31T11:42:40.688Z,72.02
2022-12-31T11:45:37.936Z,72.60
2022-12-31T11:48:30.129Z,73.15
2022-12-31T11:51:31.434Z,73.19
2022-12-31T11:54:35.293Z,74.19
2022-12-31T11:57:34.161Z,74.18
2022-12-31T12:00:14.376Z,74.78
2022-12-31T12:02:45.910Z,75.62
2022-12-31T12:05:15.169Z,75.59
2022-12-31T12:07:41.748Z,75.21
2022-12-31T12:10:24.150Z,75.36
2022-12-31T12:12:52.236Z,76.52
2022-12-31T12:15:24.215Z,76.23
2022-12-31T12:17:55.286Z,76.80
2022-12-31T12:20:30.382Z,76.40
2022-12-31T12:22:58.750Z,76.89
2022-12-31T12:25:35.782Z,76.53
2022-12-31T12:28:16.670Z,76.98
2022-12-31T12:30:44.101Z,77.41
2022-12-31T12:33:19.187Z,77.71
2022-12-31T12:35:46.742Z,77.41
2022-12-31T12:38:19.187Z,77.46
2022-12-31T12:41:04.037Z,77.14
2022-12-31T12:43:33.921Z,78.59
2022-12-31T12:46:30.755Z,78.39
2022-12-31T12:48:58.491Z,78.28
2022-12-31T12:51:32.301Z,78.03
2022-12-31T12:54:17.371Z,78.48
2022-12-31T12:57:00.898Z,77.96
2022-12-31T12:59:30.224Z,78.06
2022-12-31T13:02:21.718Z,78.00
2022-12-31T13:05:26.005Z,78.35
2022-12-31T13:08:12.656Z,78.18
2022-12-31T13:10:41.878Z,78.92
2022-12-31T13:13:48.794Z,79.38
2022-12-31T13:16:23.934Z,79.54
2022-12-31T13:19:02.172Z,79.79
2022-12-31T13:21:43.691Z,79.06
2022-12-31T13:24:28.951Z,79.39
2022-12-31T13:27:04.124Z,78.75
2022-12-31T13:29:34.998Z,78.61
2022-12-31T13:32:05.425Z,79.40
2022-12-31T13:34:37.284Z,79.82
2022-12-31T13:37:13.072Z,80.11
2022-12-31T13:39:43.301Z,80.30
2022-12-31T13:42:25.541Z,80.02
2022-12-31T13:44:59.395Z,80.50
2022-12-31T13:47:30.113Z,80.74
2022-12-31T13:50:02.760Z,80.71
2022-12-31T13:52:38.566Z,79.71
2022-12-31T13:55:13.625Z,79.92
2022-12-31T13:57:49.444Z,80.75
2022-12-31T14:00:29.970Z,80.44
2022-12-31T14:03:14.854Z,80.35
2022-12-31T14:05:56.296Z,80.60
2022-12-31T14:08:22.863Z,80.55
2022-12-31T14:11:48.711Z,80.88
2022-12-31T14:14:47.719Z,81.98
2022-12-31T14:17:31.415Z,82.17
2022-12-31T14:20:26.995Z,82.45
2022-12-31T14:23:15.231Z,82.62
2022-12-31T14:25:49.589Z,82.97
2022-12-31T14:28:21.686Z,83.49
2022-12-31T14:30:54.928Z,83.31
2022-12-31T14:33:24.148Z,83.84
2022-12-31T14:36:06.664Z,84.10
2022-12-31T14:38:45.570Z,83.56
2022-12-31T14:41:44.876Z,83.73
2022-12-31T14:44:42.212Z,83.85
2022-12-31T14:47:23.877Z,84.22
2022-12-31T14:50:11.496Z,84.72
2022-12-31T14:52:53.813Z,84.42
2022-12-31T14:55:24.891Z,84.41
2022-12-31T14:58:26.635Z,83.86
2022-12-31T15:00:55.832Z,84.19
2022-12-31T15:03:27.001Z,84.96
2022-12-31T15:06:15.754Z,84.76
2022-12-31T15:09:16.414Z,84.85
2022-12-31T15:12:24.845Z,85.27
2022-12-31T15:15:20.093Z,85.69
2022-12-31T15:18:07.555Z,87.67
2022-12-31T15:21:13.501Z,87.19
2022-12-31T15:23:42.320Z,87.75
2022-12-31T15:26:23.245Z,88.07
2022-12-31T15:29:02.578Z,87.98
2022-12-31T15:31:30.026Z,87.94
2022-12-31T15:34:07.880Z,87.66
2022-12-31T15:36:38.496Z,87.59
2022-12-31T15:39:23.407Z,88.55
2022-12-31T15:42:35.485Z,89.25
2022-12-31T15:44:55.026Z,89.57
2022-12-31T15:47:33.428Z,89.67
2022-12-31T15:50:04.099Z,89.20
2022-12-31T15:52:40.344Z,89.69
2022-12-31T15:55:07.782Z,90.62
2022-12-31T15:57:41.025Z,90.55
2022-12-31T16:00:17.926Z,90.93
2022-12-31T16:02:53.270Z,91.62
2022-12-31T16:05:23.441Z,91.21
2022-12-31T16:08:01.570Z,92.00
2022-12-31T16:10:30.950Z,92.51
2022-12-31T16:12:59.550Z,91.63
2022-12-31T16:15:30.264Z,91.85
2022-12-31T16:18:36.003Z,91.63
2022-12-31T16:21:02.526Z,91.64
2022-12-31T16:23:28.989Z,91.21
2022-12-31T16:25:59.784Z,92.58
2022-12-31T16:28:32.239Z,92.59
2022-12-31T16:31:08.271Z,92.16
2022-12-31T16:33:34.855Z,92.92
2022-12-31T16:36:01.869Z,93.02
2022-12-31T16:38:33.686Z,92.98
2022-12-31T16:41:02.938Z,93.58
2022-12-31T16:43:40.519Z,93.57
2022-12-31T16:46:26.825Z,94.22
2022-12-31T16:48:58.213Z,94.01
2022-12-31T16:51:30.542Z,94.09
2022-12-31T16:53:58.173Z,94.22
2022-12-31T16:56:36.927Z,93.81
2022-12-31T16:59:12.109Z,94.37
2022-12-31T17:01:39.054Z,94.92
2022-12-31T17:04:11.026Z,94.67
2022-12-31T17:06:37.773Z,95.45
2022-12-31T17:09:12.799Z,94.98
2022-12-31T17:11:56.441Z,95.77
2022-12-31T17:14:26.845Z,95.86
2022-12-31T17:17:03.570Z,96.49
2022-12-31T17:19:45.977Z,96.33
2022-12-31T17:22:17.624Z,97.00
2022-12-31T17:24:47.827Z,96.28
2022-12-31T17:27:14.773Z,96.55
2022-12-31T17:29:41.773Z,96.29
2022-12-31T17:32:28.588Z,96.47
2022-12-31T17:34:55.080Z,96.94
2022-12-31T17:37:31.372Z,96.38
2022-12-31T17:40:40.520Z,96.33
2022-12-31T17:42:48.836Z,96.31
2022-12-31T17:45:21.371Z,96.70
2022-12-31T17:47:55.644Z,96.64
2022-12-31T17:50:24.669Z,97.07
2022-12-31T17:52:55.609Z,97.32
2022-12-31T17:55:22.056Z,97.62
2022-12-31T17:57:53.260Z,97.54
2022-12-31T18:00:25.170Z,98.14
2022-12-31T18:02:52.178Z,98.36
2022-12-31T18:05:23.662Z,98.87
2022-12-31T18:07:50.411Z,99.20
2022-12-31T18:10:19.258Z,98.59
2022-12-31T18:12:47.436Z,98.86
2022-12-31T18:15:20.061Z,99.04
2022-12-31T18:17:46.585Z,99.62
2022-12-31T18:20:13.536Z,99.68
2022-12-31T18:22:42.248Z,99.87
2022-12-31T18:25:20.649Z,99.51
2022-12-31T18:27:48.094Z,99.67
2022-12-31T18:30:18.241Z,99.95
2022-12-31T18:32:46.193Z,99.59
2022-12-31T18:35:33.226Z,100.00
2022-12-31T18:38:03.481Z,100.00
2022-12-31T18:40:30.180Z,100.00
2022-12-31T18:43:02.728Z,100.00
2022-12-31T18:45:31.295Z,100.00
2022-12-31T18:47:57.825Z,100.00
2022-12-31T18:50:24.412Z,100.00
2022-12-31T18:52:50.877Z,100.00
2022-12-31T18:55:23.808Z,100.00
2022-12-31T18:57:50.516Z,100.00
2022-12-31T19:00:17.270Z,100.00
2022-12-31T19:02:43.817Z,100.00
2022-12-31T19:05:31.754Z,100.00
2022-12-31T19:07:58.385Z,100.00
2022-12-31T19:10:26.514Z,100.00
2022-12-31T19:12:53.745Z,100.00
2022-12-31T19:15:22.857Z,100.00
2022-12-31T19:17:49.305Z,100.00
2022-12-31T19:20:16.126Z,100.00
2022-12-31T19:22:42.652Z,100.00
2022-12-31T19:25:21.741Z,100.00
2022-12-31T19:27:49.247Z,100.00
2022-12-31T19:30:18.337Z,100.00
2022-12-31T19:32:45.093Z,100.00
2022-12-31T19:35:13.363Z,100.00
2022-12-31T19:37:40.983Z,100.00
2022-12-31T19:40:22.549Z,100.00
2022-12-31T19:42:50.004Z,100.00
2022-12-31T19:45:19.506Z,100.00
2022-12-31T19:47:46.690Z,100.00
2022-12-31T19:50:19.873Z,100.00
2022-12-31T19:52:48.632Z,100.00
2022-12-31T19:55:18.650Z,100.00
2022-12-31T19:57:46.579Z,100.00
2022-12-31T20:00:16.534Z,100.00
2022-12-31T20:02:45.168Z,100.00
2022-12-31T20:05:13.386Z,100.00
2022-12-31T20:07:40.013Z,100.00
2022-12-31T20:10:07.682Z,100.00
2022-12-31T20:12:39.066Z,100.00
2022-12-31T20:15:09.305Z,100.00
2022-12-31T20:17:36.582Z,99.41
2022-12-31T20:20:03.927Z,99.78
2022-12-31T20:22:30.507Z,99.27
2022-12-31T20:24:58.208Z,99.90
2022-12-31T20:27:24.761Z,100.00
2022-12-31T20:29:51.290Z,100.00
2022-12-31T20:32:17.825Z,100.00
2022-12-31T20:34:44.381Z,100.00
2022-12-31T20:37:10.969Z,100.00
2022-12-31T20:39:37.719Z,100.00
2022-12-31T20:42:04.675Z,100.00
2022-12-31T20:44:31.259Z,100.00
2022-12-31T20:46:57.839Z,100.00
2022-12-31T20:49:44.827Z,100.00
2022-12-31T20:52:10.923Z,100.00
2022-12-31T20:54:37.550Z,100.00
2022-12-31T20:57:04.218Z,100.00
2022-12-31T20:59:30.725Z,100.00
2022-12-31T21:02:20.401Z,100.00
2022-12-31T21:04:45.463Z,100.00
2022-12-31T21:07:12.189Z,100.00
2022-12-31T21:09:38.694Z,100.00
2022-12-31T21:12:23.739Z,100.00
2022-12-31T21:14:50.252Z,100.00
2022-12-31T21:17:16.743Z,100.00
2022-12-31T21:19:43.279Z,100.00
2022-12-31T21:22:09.791Z,100.00
2022-12-31T21:24:36.323Z,100.00
2022-12-31T21:27:02.847Z,100.00
2022-12-31T21:29:34.329Z,100.00
2022-12-31T21:32:01.349Z,100.00
2022-12-31T21:34:27.852Z,100.00
2022-12-31T21:36:54.390Z,100.00
2022-12-31T21:39:20.932Z,100.00
2022-12-31T21:41:53.325Z,100.00
2022-12-31T21:44:21.680Z,100.00
2022-12-31T21:47:24.799Z,100.00
2022-12-31T21:49:35.799Z,100.00
2022-12-31T21:52:20.801Z,100.00
2022-12-31T21:55:05.664Z,100.00
2022-12-31T21:57:46.391Z,100.00
2022-12-31T22:00:44.333Z,100.00
2022-12-31T22:03:24.845Z,100.00
2022-12-31T22:05:57.235Z,100.00
2022-12-31T22:08:23.907Z,100.00
2022-12-31T22:10:53.016Z,100.00
2022-12-31T22:13:20.123Z,100.00
2022-12-31T22:15:48.469Z,100.00
2022-12-31T22:18:16.305Z,100.00
2022-12-31T22:20:43.004Z,100.00
2022-12-31T22:23:10.052Z,100.00
2022-12-31T22:25:38.347Z,100.00
2022-12-31T22:28:37.602Z,100.00
2022-12-31T22:30:52.934Z,100.00
2022-12-31T22:33:19.530Z,100.00
2022-12-31T22:36:00.472Z,100.00
2022-12-31T22:38:28.586Z,100.00
2022-12-31T22:41:21.970Z,100.00
2022-12-31T22:43:50.978Z,100.00
2022-12-31T22:46:19.334Z,100.00
2022-12-31T22:48:46.503Z,100.00
2022-12-31T22:51:14.826Z,100.00
2022-12-31T22:53:43.324Z,100.00
2022-12-31T22:56:12.440Z,100.00
2022-12-31T22:58:39.499Z,100.00
2022-12-31T23:01:07.671Z,100.00
2022-12-31T23:03:34.448Z,100.00
2022-12-31T23:06:01.024Z,100.00
2022-12-31T23:08:27.551Z,100.00
2022-12-31T23:11:00.717Z,100.00
2022-12-31T23:13:50.808Z,100.00
2022-12-31T23:16:37.154Z,100.00
2022-12-31T23:19:22.672Z,100.00
2022-12-31T23:22:07.585Z,100.00
2022-12-31T23:24:34.270Z,100.00
2022-12-31T23:27:00.838Z,100.00
2022-12-31T23:29:27.357Z,100.00
2022-12-31T23:31:54.222Z,100.00
2022-12-31T23:34:21.093Z,100.00
2022-12-31T23:36:47.632Z,100.00
2022-12-31T23:39:14.148Z,100.00
2022-12-31T23:41:40.736Z,100.00
2022-12-31T23:44:07.461Z,100.00
2022-12-31T23:46:34.030Z,100.00
2022-12-31T23:49:00.528Z,100.00
2022-12-31T23:51:27.061Z,100.00
2022-12-31T23:53:53.649Z,100.00
2022-12-31T23:56:23.718Z,100.00
2022-12-31T23:58:55.343Z,100.00
